sensor_id;sensor_type;location;lat;lon;timestamp;pressure;altitude;pressure_sealevel;temperature;humidity
77325;BME280;66387;53.440;10.390;2023-10-19T00:00:45;99633.31;;;7.12;89.59
77325;BME280;66387;53.440;10.390;2023-10-19T00:03:13;99635.88;;;7.13;89.63
77325;BME280;66387;53.440;10.390;2023-10-19T00:05:38;99610.16;;;7.07;89.65
77325;BME280;66387;53.440;10.390;2023-10-19T00:08:06;99613.47;;;7.15;89.53
77325;BME280;66387;53.440;10.390;2023-10-19T00:10:37;99604.06;;;7.11;90.16
77325;BME280;66387;53.440;10.390;2023-10-19T00:13:03;99599.75;;;7.12;89.68
77325;BME280;66387;53.440;10.390;2023-10-19T00:15:34;99591.28;;;7.04;89.60
77325;BME280;66387;53.440;10.390;2023-10-19T00:18:00;99588.56;;;7.13;89.38
77325;BME280;66387;53.440;10.390;2023-10-19T00:20:41;99580.84;;;7.11;88.99
77325;BME280;66387;53.440;10.390;2023-10-19T00:23:23;99591.09;;;7.16;89.46
77325;BME280;66387;53.440;10.390;2023-10-19T00:25:56;99575.63;;;7.14;89.88
77325;BME280;66387;53.440;10.390;2023-10-19T00:28:22;99577.28;;;7.18;89.14
77325;BME280;66387;53.440;10.390;2023-10-19T00:30:54;99573.16;;;7.08;89.42
77325;BME280;66387;53.440;10.390;2023-10-19T00:33:24;99579.13;;;7.12;89.52
77325;BME280;66387;53.440;10.390;2023-10-19T00:35:53;99567.97;;;7.10;89.62
77325;BME280;66387;53.440;10.390;2023-10-19T00:38:26;99563.75;;;7.06;90.13
77325;BME280;66387;53.440;10.390;2023-10-19T00:40:55;99559.41;;;7.08;89.86
77325;BME280;66387;53.440;10.390;2023-10-19T00:43:31;99554.28;;;7.05;89.98
77325;BME280;66387;53.440;10.390;2023-10-19T00:46:02;99550.00;;;7.05;90.15
77325;BME280;66387;53.440;10.390;2023-10-19T00:48:28;99542.94;;;7.15;89.73
77325;BME280;66387;53.440;10.390;2023-10-19T00:50:54;99553.38;;;7.07;90.04
77325;BME280;66387;53.440;10.390;2023-10-19T00:53:34;99549.03;;;7.11;90.06
77325;BME280;66387;53.440;10.390;2023-10-19T00:55:59;99539.72;;;7.02;90.28
77325;BME280;66387;53.440;10.390;2023-10-19T00:58:26;99531.88;;;7.08;90.28
77325;BME280;66387;53.440;10.390;2023-10-19T01:00:56;99534.34;;;7.14;90.44
77325;BME280;66387;53.440;10.390;2023-10-19T01:03:21;99536.13;;;7.11;90.60
77325;BME280;66387;53.440;10.390;2023-10-19T01:05:46;99530.94;;;7.12;90.34
77325;BME280;66387;53.440;10.390;2023-10-19T01:08:13;99540.53;;;7.06;90.64
77325;BME280;66387;53.440;10.390;2023-10-19T01:10:57;99528.41;;;7.09;90.18
77325;BME280;66387;53.440;10.390;2023-10-19T01:13:24;99516.41;;;7.07;90.16
77325;BME280;66387;53.440;10.390;2023-10-19T01:15:53;99520.69;;;7.09;90.37
77325;BME280;66387;53.440;10.390;2023-10-19T01:18:19;99513.75;;;7.13;90.27
77325;BME280;66387;53.440;10.390;2023-10-19T01:20:44;99517.28;;;7.06;90.55
77325;BME280;66387;53.440;10.390;2023-10-19T01:23:16;99509.56;;;7.06;90.31
77325;BME280;66387;53.440;10.390;2023-10-19T01:25:55;99501.81;;;7.04;90.29
77325;BME280;66387;53.440;10.390;2023-10-19T01:28:21;99496.59;;;7.10;90.49
77325;BME280;66387;53.440;10.390;2023-10-19T01:30:51;99488.81;;;7.12;90.35
77325;BME280;66387;53.440;10.390;2023-10-19T01:33:20;99487.31;;;6.99;90.64
77325;BME280;66387;53.440;10.390;2023-10-19T01:35:46;99493.41;;;6.93;90.71
77325;BME280;66387;53.440;10.390;2023-10-19T01:38:31;99484.63;;;7.03;90.88
77325;BME280;66387;53.440;10.390;2023-10-19T01:41:00;99473.38;;;7.07;90.65
77325;BME280;66387;53.440;10.390;2023-10-19T01:43:26;99470.88;;;7.04;90.83
77325;BME280;66387;53.440;10.390;2023-10-19T01:46:00;99470.91;;;7.03;91.17
77325;BME280;66387;53.440;10.390;2023-10-19T01:48:30;99463.97;;;7.06;90.44
77325;BME280;66387;53.440;10.390;2023-10-19T01:51:03;99458.81;;;7.06;90.63
77325;BME280;66387;53.440;10.390;2023-10-19T01:53:35;99451.06;;;7.05;90.02
77325;BME280;66387;53.440;10.390;2023-10-19T01:56:02;99445.91;;;7.05;90.17
77325;BME280;66387;53.440;10.390;2023-10-19T01:58:30;99443.34;;;7.03;90.45
77325;BME280;66387;53.440;10.390;2023-10-19T02:00:55;99434.66;;;7.09;90.12
77325;BME280;66387;53.440;10.390;2023-10-19T02:03:25;99437.19;;;7.12;90.37
77325;BME280;66387;53.440;10.390;2023-10-19T02:05:59;99443.09;;;7.18;89.67
77325;BME280;66387;53.440;10.390;2023-10-19T02:08:27;99438.84;;;7.14;89.38
77325;BME280;66387;53.440;10.390;2023-10-19T02:10:53;99429.25;;;7.22;88.98
77325;BME280;66387;53.440;10.390;2023-10-19T02:13:19;99430.03;;;7.26;88.47
77325;BME280;66387;53.440;10.390;2023-10-19T02:15:44;99424.28;;;7.13;89.30
77325;BME280;66387;53.440;10.390;2023-10-19T02:18:10;99416.41;;;7.19;89.49
77325;BME280;66387;53.440;10.390;2023-10-19T02:20:36;99420.69;;;7.20;89.35
77325;BME280;66387;53.440;10.390;2023-10-19T02:23:06;99420.78;;;7.14;89.61
77325;BME280;66387;53.440;10.390;2023-10-19T02:25:33;99409.59;;;7.17;88.82
77325;BME280;66387;53.440;10.390;2023-10-19T02:28:03;99404.31;;;7.21;88.59
77325;BME280;66387;53.440;10.390;2023-10-19T02:30:29;99391.47;;;7.18;89.37
77325;BME280;66387;53.440;10.390;2023-10-19T02:32:56;99395.69;;;7.22;88.82
77325;BME280;66387;53.440;10.390;2023-10-19T02:35:21;99413.81;;;7.21;88.56
77325;BME280;66387;53.440;10.390;2023-10-19T02:37:46;99389.66;;;7.23;88.87
77325;BME280;66387;53.440;10.390;2023-10-19T02:40:12;99392.38;;;7.17;88.44
77325;BME280;66387;53.440;10.390;2023-10-19T02:42:44;99397.47;;;7.20;88.43
77325;BME280;66387;53.440;10.390;2023-10-19T02:45:12;99393.91;;;7.26;88.32
77325;BME280;66387;53.440;10.390;2023-10-19T02:47:40;99399.06;;;7.26;87.97
77325;BME280;66387;53.440;10.390;2023-10-19T02:50:07;99409.31;;;7.30;87.79
77325;BME280;66387;53.440;10.390;2023-10-19T02:52:36;99399.06;;;7.27;87.87
77325;BME280;66387;53.440;10.390;2023-10-19T02:55:02;99399.91;;;7.26;87.79
77325;BME280;66387;53.440;10.390;2023-10-19T02:57:29;99397.28;;;7.29;87.44
77325;BME280;66387;53.440;10.390;2023-10-19T02:59:56;99403.34;;;7.28;87.35
77325;BME280;66387;53.440;10.390;2023-10-19T03:02:23;99405.00;;;7.31;87.47
77325;BME280;66387;53.440;10.390;2023-10-19T03:04:51;99397.22;;;7.32;87.76
77325;BME280;66387;53.440;10.390;2023-10-19T03:07:16;99386.09;;;7.29;87.31
77325;BME280;66387;53.440;10.390;2023-10-19T03:09:43;99387.84;;;7.28;87.76
77325;BME280;66387;53.440;10.390;2023-10-19T03:12:14;99398.91;;;7.33;87.02
77325;BME280;66387;53.440;10.390;2023-10-19T03:14:40;99387.72;;;7.34;86.67
77325;BME280;66387;53.440;10.390;2023-10-19T03:17:11;99392.88;;;7.34;87.12
77325;BME280;66387;53.440;10.390;2023-10-19T03:19:36;99390.31;;;7.34;87.70
77325;BME280;66387;53.440;10.390;2023-10-19T03:22:02;99383.41;;;7.35;87.89
77325;BME280;66387;53.440;10.390;2023-10-19T03:24:30;99376.56;;;7.32;87.96
77325;BME280;66387;53.440;10.390;2023-10-19T03:27:07;99374.84;;;7.33;89.26
77325;BME280;66387;53.440;10.390;2023-10-19T03:29:41;99378.25;;;7.35;90.03
77325;BME280;66387;53.440;10.390;2023-10-19T03:32:11;99375.88;;;7.24;91.49
77325;BME280;66387;53.440;10.390;2023-10-19T03:34:37;99372.53;;;7.19;92.57
77325;BME280;66387;53.440;10.390;2023-10-19T03:37:02;99365.66;;;7.18;93.59
77325;BME280;66387;53.440;10.390;2023-10-19T03:39:33;99364.91;;;7.13;95.46
77325;BME280;66387;53.440;10.390;2023-10-19T03:41:59;99364.00;;;7.14;97.17
77325;BME280;66387;53.440;10.390;2023-10-19T03:44:24;99361.78;;;6.96;97.52
77325;BME280;66387;53.440;10.390;2023-10-19T03:46:51;99358.44;;;6.91;98.78
77325;BME280;66387;53.440;10.390;2023-10-19T03:49:22;99359.38;;;6.87;99.84
77325;BME280;66387;53.440;10.390;2023-10-19T03:51:48;99354.47;;;6.73;100.00
77325;BME280;66387;53.440;10.390;2023-10-19T03:54:24;99357.78;;;6.80;100.00
77325;BME280;66387;53.440;10.390;2023-10-19T03:56:50;99352.66;;;6.78;100.00
77325;BME280;66387;53.440;10.390;2023-10-19T03:59:16;99351.91;;;6.72;100.00
77325;BME280;66387;53.440;10.390;2023-10-19T04:01:42;99355.22;;;6.78;100.00
77325;BME280;66387;53.440;10.390;2023-10-19T04:04:09;99345.09;;;6.68;100.00
77325;BME280;66387;53.440;10.390;2023-10-19T04:06:34;99348.47;;;6.73;100.00
77325;BME280;66387;53.440;10.390;2023-10-19T04:08:59;99345.81;;;6.76;100.00
77325;BME280;66387;53.440;10.390;2023-10-19T04:11:24;99342.44;;;6.74;100.00
77325;BME280;66387;53.440;10.390;2023-10-19T04:13:57;99338.22;;;6.70;100.00
77325;BME280;66387;53.440;10.390;2023-10-19T04:16:24;99343.47;;;6.64;100.00
77325;BME280;66387;53.440;10.390;2023-10-19T04:18:49;99337.38;;;6.68;100.00
77325;BME280;66387;53.440;10.390;2023-10-19T04:21:15;99329.63;;;6.69;100.00
77325;BME280;66387;53.440;10.390;2023-10-19T04:23:40;99335.53;;;6.74;100.00
77325;BME280;66387;53.440;10.390;2023-10-19T04:26:06;99334.06;;;6.60;100.00
77325;BME280;66387;53.440;10.390;2023-10-19T04:28:36;99340.09;;;6.60;100.00
77325;BME280;66387;53.440;10.390;2023-10-19T04:31:14;99326.47;;;6.52;100.00
77325;BME280;66387;53.440;10.390;2023-10-19T04:33:41;99322.16;;;6.53;100.00
77325;BME280;66387;53.440;10.390;2023-10-19T04:36:08;99329.03;;;6.54;100.00
77325;BME280;66387;53.440;10.390;2023-10-19T04:38:36;99331.66;;;6.51;100.00
77325;BME280;66387;53.440;10.390;2023-10-19T04:41:08;99324.06;;;6.45;100.00
77325;BME280;66387;53.440;10.390;2023-10-19T04:43:35;99317.84;;;6.55;100.00
77325;BME280;66387;53.440;10.390;2023-10-19T04:46:04;99311.97;;;6.48;100.00
77325;BME280;66387;53.440;10.390;2023-10-19T04:48:33;99304.38;;;6.39;100.00
77325;BME280;66387;53.440;10.390;2023-10-19T04:50:58;99306.75;;;6.50;100.00
77325;BME280;66387;53.440;10.390;2023-10-19T04:53:23;99313.81;;;6.38;100.00
77325;BME280;66387;53.440;10.390;2023-10-19T04:55:48;99311.03;;;6.51;100.00
77325;BME280;66387;53.440;10.390;2023-10-19T04:58:15;99312.78;;;6.49;100.00
77325;BME280;66387;53.440;10.390;2023-10-19T05:00:40;99315.28;;;6.55;100.00
77325;BME280;66387;53.440;10.390;2023-10-19T05:03:06;99313.75;;;6.45;100.00
77325;BME280;66387;53.440;10.390;2023-10-19T05:05:32;99306.00;;;6.45;100.00
77325;BME280;66387;53.440;10.390;2023-10-19T05:07:57;99306.75;;;6.50;100.00
77325;BME280;66387;53.440;10.390;2023-10-19T05:10:22;99305.16;;;6.44;100.00
77325;BME280;66387;53.440;10.390;2023-10-19T05:12:48;99297.38;;;6.46;100.00
77325;BME280;66387;53.440;10.390;2023-10-19T05:15:13;99300.88;;;6.41;100.00
77325;BME280;66387;53.440;10.390;2023-10-19T05:17:38;99300.75;;;6.49;100.00
77325;BME280;66387;53.440;10.390;2023-10-19T05:20:04;99292.25;;;6.44;100.00
77325;BME280;66387;53.440;10.390;2023-10-19T05:22:30;99287.19;;;6.39;100.00
77325;BME280;66387;53.440;10.390;2023-10-19T05:24:57;99279.56;;;6.33;100.00
77325;BME280;66387;53.440;10.390;2023-10-19T05:27:22;99273.44;;;6.37;100.00
77325;BME280;66387;53.440;10.390;2023-10-19T05:29:48;99256.31;;;6.36;100.00
77325;BME280;66387;53.440;10.390;2023-10-19T05:32:14;99254.59;;;6.35;100.00
77325;BME280;66387;53.440;10.390;2023-10-19T05:34:39;99260.63;;;6.36;100.00
77325;BME280;66387;53.440;10.390;2023-10-19T05:37:04;99257.91;;;6.42;100.00
77325;BME280;66387;53.440;10.390;2023-10-19T05:39:31;99260.56;;;6.39;100.00
77325;BME280;66387;53.440;10.390;2023-10-19T05:41:56;99249.31;;;6.41;100.00
77325;BME280;66387;53.440;10.390;2023-10-19T05:44:25;99248.66;;;6.30;100.00
77325;BME280;66387;53.440;10.390;2023-10-19T05:46:51;99246.88;;;6.35;100.00
77325;BME280;66387;53.440;10.390;2023-10-19T05:49:16;99258.94;;;6.33;100.00
77325;BME280;66387;53.440;10.390;2023-10-19T05:51:42;99249.44;;;6.35;100.00
77325;BME280;66387;53.440;10.390;2023-10-19T05:54:09;99253.06;;;6.25;100.00
77325;BME280;66387;53.440;10.390;2023-10-19T05:56:34;99249.47;;;6.34;100.00
77325;BME280;66387;53.440;10.390;2023-10-19T05:58:59;99250.25;;;6.37;100.00
77325;BME280;66387;53.440;10.390;2023-10-19T06:01:26;99249.44;;;6.35;100.00
77325;BME280;66387;53.440;10.390;2023-10-19T06:03:51;99252.91;;;6.34;100.00
77325;BME280;66387;53.440;10.390;2023-10-19T06:06:17;99258.94;;;6.33;100.00
77325;BME280;66387;53.440;10.390;2023-10-19T06:08:42;99251.16;;;6.36;100.00
77325;BME280;66387;53.440;10.390;2023-10-19T06:11:07;99251.09;;;6.39;100.00
77325;BME280;66387;53.440;10.390;2023-10-19T06:13:33;99267.34;;;6.43;100.00
77325;BME280;66387;53.440;10.390;2023-10-19T06:15:58;99246.16;;;6.27;100.00
77325;BME280;66387;53.440;10.390;2023-10-19T06:18:23;99252.09;;;6.32;100.00
77325;BME280;66387;53.440;10.390;2023-10-19T06:20:49;99241.78;;;6.31;100.00
77325;BME280;66387;53.440;10.390;2023-10-19T06:23:16;99236.50;;;6.38;100.00
77325;BME280;66387;53.440;10.390;2023-10-19T06:25:43;99233.22;;;6.30;100.00
77325;BME280;66387;53.440;10.390;2023-10-19T06:28:08;99238.34;;;6.33;100.00
77325;BME280;66387;53.440;10.390;2023-10-19T06:30:34;99248.53;;;6.38;100.00
77325;BME280;66387;53.440;10.390;2023-10-19T06:33:00;99257.06;;;6.41;100.00
77325;BME280;66387;53.440;10.390;2023-10-19T06:35:32;99253.63;;;6.43;100.00
77325;BME280;66387;53.440;10.390;2023-10-19T06:37:57;99252.75;;;6.42;100.00
77325;BME280;66387;53.440;10.390;2023-10-19T06:40:26;99257.06;;;6.41;100.00
77325;BME280;66387;53.440;10.390;2023-10-19T06:42:54;99258.69;;;6.47;100.00
77325;BME280;66387;53.440;10.390;2023-10-19T06:45:24;99261.16;;;6.53;100.00
77325;BME280;66387;53.440;10.390;2023-10-19T06:47:55;99262.88;;;6.53;100.00
77325;BME280;66387;53.440;10.390;2023-10-19T06:50:21;99267.16;;;6.54;100.00
77325;BME280;66387;53.440;10.390;2023-10-19T06:52:47;99253.41;;;6.53;100.00
77325;BME280;66387;53.440;10.390;2023-10-19T06:55:14;99262.84;;;6.56;100.00
77325;BME280;66387;53.440;10.390;2023-10-19T06:57:42;99275.75;;;6.53;100.00
77325;BME280;66387;53.440;10.390;2023-10-19T07:00:11;99280.03;;;6.55;100.00
77325;BME280;66387;53.440;10.390;2023-10-19T07:02:41;99274.81;;;6.58;100.00
77325;BME280;66387;53.440;10.390;2023-10-19T07:05:08;99277.28;;;6.64;100.00
77325;BME280;66387;53.440;10.390;2023-10-19T07:07:43;99281.41;;;6.73;100.00
77325;BME280;66387;53.440;10.390;2023-10-19T07:10:10;99273.81;;;6.65;100.00
77325;BME280;66387;53.440;10.390;2023-10-19T07:12:39;99278.06;;;6.68;100.00
77325;BME280;66387;53.440;10.390;2023-10-19T07:15:05;99275.41;;;6.72;100.00
77325;BME280;66387;53.440;10.390;2023-10-19T07:17:33;99276.19;;;6.76;100.00
77325;BME280;66387;53.440;10.390;2023-10-19T07:19:58;99276.22;;;6.74;100.00
77325;BME280;66387;53.440;10.390;2023-10-19T07:22:24;99262.38;;;6.78;100.00
77325;BME280;66387;53.440;10.390;2023-10-19T07:24:50;99273.56;;;6.79;100.00
77325;BME280;66387;53.440;10.390;2023-10-19T07:27:16;99263.44;;;6.68;100.00
77325;BME280;66387;53.440;10.390;2023-10-19T07:29:44;99263.47;;;6.67;100.00
77325;BME280;66387;53.440;10.390;2023-10-19T07:32:09;99263.47;;;6.67;100.00
77325;BME280;66387;53.440;10.390;2023-10-19T07:34:38;99254.84;;;6.68;100.00
77325;BME280;66387;53.440;10.390;2023-10-19T07:37:03;99264.44;;;6.63;100.00
77325;BME280;66387;53.440;10.390;2023-10-19T07:39:29;99259.22;;;6.64;100.00
77325;BME280;66387;53.440;10.390;2023-10-19T07:41:58;99265.06;;;6.74;100.00
77325;BME280;66387;53.440;10.390;2023-10-19T07:44:24;99266.00;;;6.70;100.00
77325;BME280;66387;53.440;10.390;2023-10-19T07:46:49;99261.66;;;6.73;100.00
77325;BME280;66387;53.440;10.390;2023-10-19T07:49:14;99257.28;;;6.75;100.00
77325;BME280;66387;53.440;10.390;2023-10-19T07:51:49;99253.78;;;6.79;100.00
77325;BME280;66387;53.440;10.390;2023-10-19T07:54:15;99264.94;;;6.80;100.00
77325;BME280;66387;53.440;10.390;2023-10-19T07:56:41;99257.16;;;6.83;100.00
77325;BME280;66387;53.440;10.390;2023-10-19T07:59:06;99254.75;;;6.74;100.00
77325;BME280;66387;53.440;10.390;2023-10-19T08:01:32;99251.22;;;6.78;100.00
77325;BME280;66387;53.440;10.390;2023-10-19T08:03:57;99263.31;;;6.76;100.00
77325;BME280;66387;53.440;10.390;2023-10-19T08:06:22;99262.31;;;6.83;100.00
77325;BME280;66387;53.440;10.390;2023-10-19T08:08:48;99266.53;;;6.87;100.00
77325;BME280;66387;53.440;10.390;2023-10-19T08:11:13;99266.31;;;6.96;100.00
77325;BME280;66387;53.440;10.390;2023-10-19T08:13:38;99265.38;;;7.02;100.00
77325;BME280;66387;53.440;10.390;2023-10-19T08:16:05;99249.06;;;7.00;100.00
77325;BME280;66387;53.440;10.390;2023-10-19T08:18:32;99250.06;;;6.93;100.00
77325;BME280;66387;53.440;10.390;2023-10-19T08:21:00;99244.09;;;6.92;100.00
77325;BME280;66387;53.440;10.390;2023-10-19T08:23:25;99247.59;;;6.88;100.00
77325;BME280;66387;53.440;10.390;2023-10-19T08:25:52;99232.16;;;6.85;100.00
77325;BME280;66387;53.440;10.390;2023-10-19T08:28:18;99226.19;;;6.83;100.00
77325;BME280;66387;53.440;10.390;2023-10-19T08:30:45;99216.16;;;6.69;100.00
77325;BME280;66387;53.440;10.390;2023-10-19T08:33:22;99206.72;;;6.67;100.00
77325;BME280;66387;53.440;10.390;2023-10-19T08:35:47;99196.41;;;6.67;100.00
77325;BME280;66387;53.440;10.390;2023-10-19T08:38:12;99190.53;;;6.60;100.00
77325;BME280;66387;53.440;10.390;2023-10-19T08:40:38;99198.13;;;6.68;100.00
77325;BME280;66387;53.440;10.390;2023-10-19T08:43:05;99209.28;;;6.68;100.00
77325;BME280;66387;53.440;10.390;2023-10-19T08:45:31;99210.94;;;6.71;100.00
77325;BME280;66387;53.440;10.390;2023-10-19T08:48:01;99212.72;;;6.69;100.00
77325;BME280;66387;53.440;10.390;2023-10-19T08:50:29;99199.69;;;6.75;100.00
77325;BME280;66387;53.440;10.390;2023-10-19T08:52:56;99206.38;;;6.85;100.00
77325;BME280;66387;53.440;10.390;2023-10-19T08:55:22;99203.63;;;6.93;100.00
77325;BME280;66387;53.440;10.390;2023-10-19T08:57:49;99202.97;;;6.84;100.00
77325;BME280;66387;53.440;10.390;2023-10-19T09:00:15;99207.34;;;6.79;100.00
77325;BME280;66387;53.440;10.390;2023-10-19T09:02:43;99211.59;;;6.82;100.00
77325;BME280;66387;53.440;10.390;2023-10-19T09:05:08;99211.41;;;6.91;100.00
77325;BME280;66387;53.440;10.390;2023-10-19T09:07:34;99211.28;;;6.97;100.00
77325;BME280;66387;53.440;10.390;2023-10-19T09:10:00;99226.97;;;6.88;100.00
77325;BME280;66387;53.440;10.390;2023-10-19T09:12:26;99228.59;;;6.92;100.00
77325;BME280;66387;53.440;10.390;2023-10-19T09:14:52;99225.19;;;6.90;100.00
77325;BME280;66387;53.440;10.390;2023-10-19T09:17:27;99235.44;;;6.93;100.00
77325;BME280;66387;53.440;10.390;2023-10-19T09:19:54;99237.31;;;6.85;100.00
77325;BME280;66387;53.440;10.390;2023-10-19T09:22:19;99234.00;;;6.80;100.00
77325;BME280;66387;53.440;10.390;2023-10-19T09:24:49;99225.34;;;6.82;100.00
77325;BME280;66387;53.440;10.390;2023-10-19T09:27:17;99225.16;;;6.92;100.00
77325;BME280;66387;53.440;10.390;2023-10-19T09:29:42;99217.34;;;6.95;100.00
77325;BME280;66387;53.440;10.390;2023-10-19T09:32:08;99219.09;;;6.94;100.00
77325;BME280;66387;53.440;10.390;2023-10-19T09:34:35;99216.69;;;6.85;100.00
77325;BME280;66387;53.440;10.390;2023-10-19T09:37:02;99216.72;;;6.83;100.00
77325;BME280;66387;53.440;10.390;2023-10-19T09:39:28;99221.72;;;6.91;100.00
77325;BME280;66387;53.440;10.390;2023-10-19T09:42:06;99225.94;;;6.95;100.00
77325;BME280;66387;53.440;10.390;2023-10-19T09:44:44;99234.63;;;6.91;100.00
77325;BME280;66387;53.440;10.390;2023-10-19T09:47:12;99237.06;;;6.97;100.00
77325;BME280;66387;53.440;10.390;2023-10-19T09:49:41;99232.94;;;6.90;100.00
77325;BME280;66387;53.440;10.390;2023-10-19T09:52:08;99228.69;;;6.86;100.00
77325;BME280;66387;53.440;10.390;2023-10-19T09:57:22;99231.13;;;6.95;100.00
77325;BME280;66387;53.440;10.390;2023-10-19T09:59:56;99221.84;;;6.85;100.00
77325;BME280;66387;53.440;10.390;2023-10-19T10:02:24;99225.38;;;6.81;100.00
77325;BME280;66387;53.440;10.390;2023-10-19T10:04:49;99234.81;;;6.82;100.00
77325;BME280;66387;53.440;10.390;2023-10-19T10:07:15;99227.91;;;6.84;100.00
77325;BME280;66387;53.440;10.390;2023-10-19T10:09:44;99227.75;;;6.92;100.00
77325;BME280;66387;53.440;10.390;2023-10-19T10:12:23;99223.59;;;6.84;100.00
77325;BME280;66387;53.440;10.390;2023-10-19T10:14:58;99224.47;;;6.82;100.00
77325;BME280;66387;53.440;10.390;2023-10-19T10:17:25;99213.16;;;6.89;100.00
77325;BME280;66387;53.440;10.390;2023-10-19T10:19:54;99206.31;;;6.88;100.00
77325;BME280;66387;53.440;10.390;2023-10-19T10:22:21;99203.06;;;6.78;100.00
77325;BME280;66387;53.440;10.390;2023-10-19T10:24:47;99199.75;;;6.72;100.00
77325;BME280;66387;53.440;10.390;2023-10-19T10:27:16;99206.81;;;6.64;100.00
77325;BME280;66387;53.440;10.390;2023-10-19T10:29:57;99209.22;;;6.71;100.00
77325;BME280;66387;53.440;10.390;2023-10-19T10:32:48;99217.75;;;6.75;100.00
77325;BME280;66387;53.440;10.390;2023-10-19T10:38:04;99204.69;;;6.84;100.00
77325;BME280;66387;53.440;10.390;2023-10-19T10:40:31;99212.31;;;6.88;100.00
77325;BME280;66387;53.440;10.390;2023-10-19T10:43:06;99201.13;;;6.89;100.00
77325;BME280;66387;53.440;10.390;2023-10-19T10:45:32;99197.59;;;6.94;100.00
77325;BME280;66387;53.440;10.390;2023-10-19T10:47:57;99204.41;;;6.98;100.00
77325;BME280;66387;53.440;10.390;2023-10-19T10:50:26;99202.66;;;6.98;100.00
77325;BME280;66387;53.440;10.390;2023-10-19T10:52:53;99201.84;;;6.96;100.00
77325;BME280;66387;53.440;10.390;2023-10-19T10:55:23;99206.13;;;6.97;100.00
77325;BME280;66387;53.440;10.390;2023-10-19T10:57:50;99205.97;;;7.03;100.00
77325;BME280;66387;53.440;10.390;2023-10-19T11:00:16;99206.16;;;6.96;100.00
77325;BME280;66387;53.440;10.390;2023-10-19T11:02:47;99202.75;;;6.95;100.00
77325;BME280;66387;53.440;10.390;2023-10-19T11:05:23;99186.59;;;6.85;100.00
77325;BME280;66387;53.440;10.390;2023-10-19T11:08:15;99182.16;;;6.92;100.00
77325;BME280;66387;53.440;10.390;2023-10-19T11:10:43;99179.38;;;7.01;100.00
77325;BME280;66387;53.440;10.390;2023-10-19T11:13:12;99170.06;;;6.94;100.00
77325;BME280;66387;53.440;10.390;2023-10-19T11:15:38;99166.56;;;6.98;100.00
77325;BME280;66387;53.440;10.390;2023-10-19T11:18:05;99166.47;;;7.01;100.00
77325;BME280;66387;53.440;10.390;2023-10-19T11:20:32;99175.09;;;7.00;100.00
77325;BME280;66387;53.440;10.390;2023-10-19T11:22:58;99171.97;;;6.86;100.00
77325;BME280;66387;53.440;10.390;2023-10-19T11:25:27;99185.63;;;6.91;100.00
77325;BME280;66387;53.440;10.390;2023-10-19T11:27:58;99178.97;;;6.81;100.00
77325;BME280;66387;53.440;10.390;2023-10-19T11:32:53;99189.78;;;6.97;100.00
77325;BME280;66387;53.440;10.390;2023-10-19T11:35:22;99195.81;;;6.97;100.00
77325;BME280;66387;53.440;10.390;2023-10-19T11:37:51;99193.28;;;6.96;100.00
77325;BME280;66387;53.440;10.390;2023-10-19T11:40:23;99184.50;;;7.03;100.00
77325;BME280;66387;53.440;10.390;2023-10-19T11:42:49;99180.25;;;7.00;100.00
77325;BME280;66387;53.440;10.390;2023-10-19T11:45:16;99173.19;;;7.10;100.00
77325;BME280;66387;53.440;10.390;2023-10-19T11:47:42;99162.88;;;7.08;100.00
77325;BME280;66387;53.440;10.390;2023-10-19T11:50:08;99167.09;;;7.12;100.00
77325;BME280;66387;53.440;10.390;2023-10-19T11:52:37;99167.00;;;7.15;100.00
77325;BME280;66387;53.440;10.390;2023-10-19T11:55:02;99160.91;;;7.19;100.00
77325;BME280;66387;53.440;10.390;2023-10-19T11:57:30;99164.44;;;7.15;100.00
77325;BME280;66387;53.440;10.390;2023-10-19T11:59:55;99162.72;;;7.14;100.00
77325;BME280;66387;53.440;10.390;2023-10-19T12:02:22;99152.41;;;7.14;100.00
77325;BME280;66387;53.440;10.390;2023-10-19T12:04:47;99147.25;;;7.14;100.00
77325;BME280;66387;53.440;10.390;2023-10-19T12:07:13;99149.81;;;7.14;100.00
77325;BME280;66387;53.440;10.390;2023-10-19T12:09:38;99152.38;;;7.17;100.00
77325;BME280;66387;53.440;10.390;2023-10-19T12:12:07;99157.44;;;7.20;100.00
77325;BME280;66387;53.440;10.390;2023-10-19T12:14:32;99157.41;;;7.22;100.00
77325;BME280;66387;53.440;10.390;2023-10-19T12:17:01;99155.03;;;7.13;100.00
77325;BME280;66387;53.440;10.390;2023-10-19T12:19:30;99149.81;;;7.14;100.00
77325;BME280;66387;53.440;10.390;2023-10-19T12:21:56;99135.88;;;7.23;100.00
77325;BME280;66387;53.440;10.390;2023-10-19T12:24:21;99138.72;;;7.12;100.00
77325;BME280;66387;53.440;10.390;2023-10-19T12:26:48;99133.28;;;7.24;100.00
77325;BME280;66387;53.440;10.390;2023-10-19T12:29:13;99138.47;;;7.23;100.00
77325;BME280;66387;53.440;10.390;2023-10-19T12:31:42;99136.81;;;7.20;100.00
77325;BME280;66387;53.440;10.390;2023-10-19T12:34:08;99138.47;;;7.23;100.00
77325;BME280;66387;53.440;10.390;2023-10-19T12:36:34;99136.06;;;7.15;100.00
77325;BME280;66387;53.440;10.390;2023-10-19T12:39:00;99130.16;;;7.10;100.00
77325;BME280;66387;53.440;10.390;2023-10-19T12:41:27;99133.63;;;7.08;100.00
77325;BME280;66387;53.440;10.390;2023-10-19T12:43:53;99120.75;;;7.08;100.00
77325;BME280;66387;53.440;10.390;2023-10-19T12:46:23;99124.09;;;7.11;100.00
77325;BME280;66387;53.440;10.390;2023-10-19T12:48:50;99120.84;;;7.03;100.00
77325;BME280;66387;53.440;10.390;2023-10-19T12:51:16;99121.56;;;7.10;100.00
77325;BME280;66387;53.440;10.390;2023-10-19T12:53:48;99126.59;;;7.14;100.00
77325;BME280;66387;53.440;10.390;2023-10-19T12:56:13;99126.78;;;7.07;100.00
77325;BME280;66387;53.440;10.390;2023-10-19T12:58:38;99125.03;;;7.07;100.00
77325;BME280;66387;53.440;10.390;2023-10-19T13:01:03;99111.34;;;7.05;100.00
77325;BME280;66387;53.440;10.390;2023-10-19T13:03:30;99107.22;;;6.98;100.00